sensor_id;sensor_type;location;lat;lon;timestamp;P1;durP1;ratioP1;P2;durP2;ratioP2
14342;SDS011;7255;53.596;9.960;2023-05-07T00:02:22;8.93;;;6.97;;
14342;SDS011;7255;53.596;9.960;2023-05-07T00:04:48;8.13;;;6.85;;
14342;SDS011;7255;53.596;9.960;2023-05-07T00:07:15;8.88;;;6.68;;
14342;SDS011;7255;53.596;9.960;2023-05-07T00:09:43;8.05;;;6.57;;
14342;SDS011;7255;53.596;9.960;2023-05-07T00:12:09;8.38;;;6.93;;
14342;SDS011;7255;53.596;9.960;2023-05-07T00:14:35;8.32;;;6.90;;
14342;SDS011;7255;53.596;9.960;2023-05-07T00:17:02;7.90;;;6.55;;
14342;SDS011;7255;53.596;9.960;2023-05-07T00:19:28;7.80;;;6.93;;
14342;SDS011;7255;53.596;9.960;2023-05-07T00:21:54;7.95;;;7.15;;
14342;SDS011;7255;53.596;9.960;2023-05-07T00:24:21;8.95;;;7.53;;
14342;SDS011;7255;53.596;9.960;2023-05-07T00:26:49;8.00;;;7.07;;
14342;SDS011;7255;53.596;9.960;2023-05-07T00:29:15;8.05;;;6.82;;
14342;SDS011;7255;53.596;9.960;2023-05-07T00:31:41;8.90;;;6.85;;
14342;SDS011;7255;53.596;9.960;2023-05-07T00:34:08;8.07;;;6.75;;
14342;SDS011;7255;53.596;9.960;2023-05-07T00:36:34;8.23;;;7.05;;
14342;SDS011;7255;53.596;9.960;2023-05-07T00:39:00;8.00;;;7.10;;
14342;SDS011;7255;53.596;9.960;2023-05-07T00:41:28;7.60;;;6.80;;
14342;SDS011;7255;53.596;9.960;2023-05-07T00:43:56;9.88;;;7.62;;
14342;SDS011;7255;53.596;9.960;2023-05-07T00:46:23;7.93;;;6.72;;
14342;SDS011;7255;53.596;9.960;2023-05-07T00:48:49;8.68;;;6.72;;
14342;SDS011;7255;53.596;9.960;2023-05-07T00:51:16;9.05;;;7.45;;
14342;SDS011;7255;53.596;9.960;2023-05-07T00:53:43;8.98;;;6.82;;
14342;SDS011;7255;53.596;9.960;2023-05-07T00:56:10;7.87;;;7.05;;
14342;SDS011;7255;53.596;9.960;2023-05-07T00:58:38;7.97;;;6.95;;
14342;SDS011;7255;53.596;9.960;2023-05-07T01:01:05;8.00;;;6.68;;
14342;SDS011;7255;53.596;9.960;2023-05-07T01:03:32;7.68;;;6.85;;
14342;SDS011;7255;53.596;9.960;2023-05-07T01:05:58;9.25;;;6.90;;
14342;SDS011;7255;53.596;9.960;2023-05-07T01:08:26;9.40;;;7.10;;
14342;SDS011;7255;53.596;9.960;2023-05-07T01:10:55;9.45;;;7.32;;
14342;SDS011;7255;53.596;9.960;2023-05-07T01:13:23;8.38;;;6.80;;
14342;SDS011;7255;53.596;9.960;2023-05-07T01:15:50;7.60;;;6.47;;
14342;SDS011;7255;53.596;9.960;2023-05-07T01:18:18;8.35;;;7.05;;
14342;SDS011;7255;53.596;9.960;2023-05-07T01:20:45;8.85;;;6.62;;
14342;SDS011;7255;53.596;9.960;2023-05-07T01:23:12;8.68;;;7.10;;
14342;SDS011;7255;53.596;9.960;2023-05-07T01:25:39;7.32;;;6.43;;
14342;SDS011;7255;53.596;9.960;2023-05-07T01:28:05;7.77;;;6.13;;
14342;SDS011;7255;53.596;9.960;2023-05-07T01:30:31;8.52;;;6.50;;
14342;SDS011;7255;53.596;9.960;2023-05-07T01:33:01;7.15;;;6.07;;
14342;SDS011;7255;53.596;9.960;2023-05-07T01:35:32;6.90;;;6.05;;
14342;SDS011;7255;53.596;9.960;2023-05-07T01:38:02;6.78;;;6.03;;
14342;SDS011;7255;53.596;9.960;2023-05-07T01:40:30;7.30;;;5.90;;
14342;SDS011;7255;53.596;9.960;2023-05-07T01:42:57;7.62;;;6.50;;
14342;SDS011;7255;53.596;9.960;2023-05-07T01:45:23;8.60;;;6.82;;
14342;SDS011;7255;53.596;9.960;2023-05-07T01:47:51;7.77;;;6.27;;
14342;SDS011;7255;53.596;9.960;2023-05-07T01:50:19;8.80;;;6.32;;
14342;SDS011;7255;53.596;9.960;2023-05-07T01:52:45;6.53;;;5.65;;
14342;SDS011;7255;53.596;9.960;2023-05-07T01:55:12;7.10;;;5.53;;
14342;SDS011;7255;53.596;9.960;2023-05-07T01:57:40;6.85;;;5.95;;
14342;SDS011;7255;53.596;9.960;2023-05-07T02:00:07;7.65;;;6.85;;
14342;SDS011;7255;53.596;9.960;2023-05-07T02:02:34;8.43;;;6.87;;
14342;SDS011;7255;53.596;9.960;2023-05-07T02:05:01;7.07;;;6.37;;
14342;SDS011;7255;53.596;9.960;2023-05-07T02:07:27;7.75;;;6.53;;
14342;SDS011;7255;53.596;9.960;2023-05-07T02:09:54;6.70;;;6.00;;
14342;SDS011;7255;53.596;9.960;2023-05-07T02:12:21;6.45;;;5.82;;
14342;SDS011;7255;53.596;9.960;2023-05-07T02:14:49;7.60;;;6.30;;
14342;SDS011;7255;53.596;9.960;2023-05-07T02:17:15;7.90;;;6.55;;
14342;SDS011;7255;53.596;9.960;2023-05-07T02:19:41;6.57;;;5.77;;
14342;SDS011;7255;53.596;9.960;2023-05-07T02:22:09;8.25;;;5.95;;
14342;SDS011;7255;53.596;9.960;2023-05-07T02:24:36;7.87;;;6.30;;
14342;SDS011;7255;53.596;9.960;2023-05-07T02:27:02;7.53;;;6.15;;
14342;SDS011;7255;53.596;9.960;2023-05-07T02:29:29;6.82;;;5.90;;
14342;SDS011;7255;53.596;9.960;2023-05-07T02:31:56;7.13;;;6.13;;
14342;SDS011;7255;53.596;9.960;2023-05-07T02:34:22;6.93;;;6.22;;
14342;SDS011;7255;53.596;9.960;2023-05-07T02:36:49;7.00;;;5.95;;
14342;SDS011;7255;53.596;9.960;2023-05-07T02:39:16;6.97;;;5.80;;
14342;SDS011;7255;53.596;9.960;2023-05-07T02:41:42;7.60;;;5.53;;
14342;SDS011;7255;53.596;9.960;2023-05-07T02:44:08;8.40;;;6.00;;
14342;SDS011;7255;53.596;9.960;2023-05-07T02:46:35;6.22;;;5.47;;
14342;SDS011;7255;53.596;9.960;2023-05-07T02:49:02;6.45;;;5.57;;
14342;SDS011;7255;53.596;9.960;2023-05-07T02:51:29;6.03;;;5.30;;
14342;SDS011;7255;53.596;9.960;2023-05-07T02:53:56;6.97;;;5.45;;
14342;SDS011;7255;53.596;9.960;2023-05-07T02:56:25;7.07;;;5.50;;
14342;SDS011;7255;53.596;9.960;2023-05-07T02:58:51;6.43;;;5.30;;
14342;SDS011;7255;53.596;9.960;2023-05-07T03:01:18;7.87;;;5.85;;
14342;SDS011;7255;53.596;9.960;2023-05-07T03:03:45;5.85;;;5.15;;
14342;SDS011;7255;53.596;9.960;2023-05-07T03:06:13;7.15;;;5.57;;
14342;SDS011;7255;53.596;9.960;2023-05-07T03:08:40;5.90;;;5.20;;
14342;SDS011;7255;53.596;9.960;2023-05-07T03:11:06;6.97;;;5.60;;
14342;SDS011;7255;53.596;9.960;2023-05-07T03:13:33;6.68;;;5.50;;
14342;SDS011;7255;53.596;9.960;2023-05-07T03:15:59;6.23;;;5.57;;
14342;SDS011;7255;53.596;9.960;2023-05-07T03:18:25;8.18;;;6.00;;
14342;SDS011;7255;53.596;9.960;2023-05-07T03:20:52;6.80;;;5.97;;
14342;SDS011;7255;53.596;9.960;2023-05-07T03:23:19;8.55;;;6.80;;
14342;SDS011;7255;53.596;9.960;2023-05-07T03:25:46;8.30;;;6.57;;
14342;SDS011;7255;53.596;9.960;2023-05-07T03:28:12;7.78;;;6.45;;
14342;SDS011;7255;53.596;9.960;2023-05-07T03:30:38;8.32;;;6.62;;
14342;SDS011;7255;53.596;9.960;2023-05-07T03:33:04;8.32;;;6.70;;
14342;SDS011;7255;53.596;9.960;2023-05-07T03:35:31;8.07;;;6.53;;
14342;SDS011;7255;53.596;9.960;2023-05-07T03:37:57;9.30;;;6.60;;
14342;SDS011;7255;53.596;9.960;2023-05-07T03:40:25;7.43;;;6.28;;
14342;SDS011;7255;53.596;9.960;2023-05-07T03:42:51;7.67;;;6.47;;
14342;SDS011;7255;53.596;9.960;2023-05-07T03:45:18;8.05;;;6.97;;
14342;SDS011;7255;53.596;9.960;2023-05-07T03:47:44;7.30;;;5.93;;
14342;SDS011;7255;53.596;9.960;2023-05-07T03:50:10;8.13;;;6.65;;
14342;SDS011;7255;53.596;9.960;2023-05-07T03:52:36;7.78;;;6.75;;
14342;SDS011;7255;53.596;9.960;2023-05-07T03:55:03;7.70;;;6.23;;
14342;SDS011;7255;53.596;9.960;2023-05-07T03:57:32;7.68;;;6.62;;
14342;SDS011;7255;53.596;9.960;2023-05-07T03:59:58;8.55;;;6.47;;
14342;SDS011;7255;53.596;9.960;2023-05-07T04:02:24;8.13;;;6.40;;
14342;SDS011;7255;53.596;9.960;2023-05-07T04:04:51;8.05;;;6.45;;
14342;SDS011;7255;53.596;9.960;2023-05-07T04:07:17;8.60;;;6.53;;
14342;SDS011;7255;53.596;9.960;2023-05-07T04:09:44;7.05;;;6.35;;
14342;SDS011;7255;53.596;9.960;2023-05-07T04:12:10;8.10;;;6.18;;
14342;SDS011;7255;53.596;9.960;2023-05-07T04:14:38;7.18;;;5.75;;
14342;SDS011;7255;53.596;9.960;2023-05-07T04:17:04;7.03;;;5.75;;
14342;SDS011;7255;53.596;9.960;2023-05-07T04:19:32;8.10;;;5.85;;
14342;SDS011;7255;53.596;9.960;2023-05-07T04:21:59;7.33;;;5.80;;
14342;SDS011;7255;53.596;9.960;2023-05-07T04:24:25;7.50;;;6.15;;
14342;SDS011;7255;53.596;9.960;2023-05-07T04:26:52;6.80;;;5.70;;
14342;SDS011;7255;53.596;9.960;2023-05-07T04:29:20;6.68;;;5.90;;
14342;SDS011;7255;53.596;9.960;2023-05-07T04:31:47;7.53;;;6.28;;
14342;SDS011;7255;53.596;9.960;2023-05-07T04:34:14;8.50;;;6.63;;
14342;SDS011;7255;53.596;9.960;2023-05-07T04:36:41;6.68;;;5.97;;
14342;SDS011;7255;53.596;9.960;2023-05-07T04:39:08;7.50;;;5.90;;
14342;SDS011;7255;53.596;9.960;2023-05-07T04:41:35;6.80;;;5.73;;
14342;SDS011;7255;53.596;9.960;2023-05-07T04:44:02;7.07;;;5.87;;
14342;SDS011;7255;53.596;9.960;2023-05-07T04:46:29;6.18;;;5.57;;
14342;SDS011;7255;53.596;9.960;2023-05-07T04:48:56;6.85;;;5.65;;
14342;SDS011;7255;53.596;9.960;2023-05-07T04:51:23;7.40;;;5.70;;
14342;SDS011;7255;53.596;9.960;2023-05-07T04:53:50;7.23;;;5.50;;
14342;SDS011;7255;53.596;9.960;2023-05-07T04:56:16;6.60;;;5.45;;
14342;SDS011;7255;53.596;9.960;2023-05-07T04:58:43;5.87;;;4.97;;
14342;SDS011;7255;53.596;9.960;2023-05-07T05:01:09;6.85;;;5.82;;
14342;SDS011;7255;53.596;9.960;2023-05-07T05:03:35;5.90;;;5.22;;
14342;SDS011;7255;53.596;9.960;2023-05-07T05:06:03;6.60;;;5.50;;
14342;SDS011;7255;53.596;9.960;2023-05-07T05:08:29;5.78;;;5.15;;
14342;SDS011;7255;53.596;9.960;2023-05-07T05:10:56;7.10;;;5.45;;
14342;SDS011;7255;53.596;9.960;2023-05-07T05:13:23;6.90;;;5.50;;
14342;SDS011;7255;53.596;9.960;2023-05-07T05:15:49;6.25;;;5.45;;
14342;SDS011;7255;53.596;9.960;2023-05-07T05:18:15;6.78;;;5.68;;
14342;SDS011;7255;53.596;9.960;2023-05-07T05:20:42;6.85;;;5.75;;
14342;SDS011;7255;53.596;9.960;2023-05-07T05:23:10;7.28;;;5.70;;
14342;SDS011;7255;53.596;9.960;2023-05-07T05:25:36;6.25;;;5.40;;
14342;SDS011;7255;53.596;9.960;2023-05-07T05:28:04;6.72;;;5.45;;
14342;SDS011;7255;53.596;9.960;2023-05-07T05:30:30;6.78;;;5.50;;
14342;SDS011;7255;53.596;9.960;2023-05-07T05:32:56;6.00;;;5.20;;
14342;SDS011;7255;53.596;9.960;2023-05-07T05:35:23;6.28;;;5.50;;
14342;SDS011;7255;53.596;9.960;2023-05-07T05:37:49;6.32;;;5.53;;
14342;SDS011;7255;53.596;9.960;2023-05-07T05:40:17;6.97;;;5.82;;
14342;SDS011;7255;53.596;9.960;2023-05-07T05:42:43;6.13;;;5.33;;
14342;SDS011;7255;53.596;9.960;2023-05-07T05:45:09;7.72;;;5.70;;
14342;SDS011;7255;53.596;9.960;2023-05-07T05:47:36;6.37;;;5.60;;
14342;SDS011;7255;53.596;9.960;2023-05-07T05:50:03;6.93;;;6.00;;
14342;SDS011;7255;53.596;9.960;2023-05-07T05:52:31;6.45;;;5.12;;
14342;SDS011;7255;53.596;9.960;2023-05-07T05:54:57;7.82;;;5.75;;
14342;SDS011;7255;53.596;9.960;2023-05-07T05:57:25;6.85;;;5.40;;
14342;SDS011;7255;53.596;9.960;2023-05-07T05:59:51;6.83;;;5.53;;
14342;SDS011;7255;53.596;9.960;2023-05-07T06:02:17;6.60;;;5.72;;
14342;SDS011;7255;53.596;9.960;2023-05-07T06:04:44;6.75;;;5.72;;
14342;SDS011;7255;53.596;9.960;2023-05-07T06:07:10;6.93;;;6.00;;
14342;SDS011;7255;53.596;9.960;2023-05-07T06:09:36;7.10;;;5.62;;
14342;SDS011;7255;53.596;9.960;2023-05-07T06:12:02;7.05;;;5.90;;
14342;SDS011;7255;53.596;9.960;2023-05-07T06:14:30;7.32;;;6.03;;
14342;SDS011;7255;53.596;9.960;2023-05-07T06:16:56;7.25;;;6.07;;
14342;SDS011;7255;53.596;9.960;2023-05-07T06:19:23;6.40;;;5.50;;
14342;SDS011;7255;53.596;9.960;2023-05-07T06:21:51;6.65;;;5.60;;
14342;SDS011;7255;53.596;9.960;2023-05-07T06:24:17;6.25;;;5.25;;
14342;SDS011;7255;53.596;9.960;2023-05-07T06:26:44;7.00;;;5.40;;
14342;SDS011;7255;53.596;9.960;2023-05-07T06:29:10;6.67;;;5.03;;
14342;SDS011;7255;53.596;9.960;2023-05-07T06:31:38;6.35;;;5.60;;
14342;SDS011;7255;53.596;9.960;2023-05-07T06:34:04;5.62;;;4.93;;
14342;SDS011;7255;53.596;9.960;2023-05-07T06:36:30;6.85;;;5.22;;
14342;SDS011;7255;53.596;9.960;2023-05-07T06:38:56;6.03;;;5.43;;
14342;SDS011;7255;53.596;9.960;2023-05-07T06:41:23;6.37;;;5.55;;
14342;SDS011;7255;53.596;9.960;2023-05-07T06:43:49;7.03;;;5.78;;
14342;SDS011;7255;53.596;9.960;2023-05-07T06:46:15;6.12;;;5.53;;
14342;SDS011;7255;53.596;9.960;2023-05-07T06:48:43;6.15;;;5.15;;
14342;SDS011;7255;53.596;9.960;2023-05-07T06:51:09;6.70;;;5.40;;
14342;SDS011;7255;53.596;9.960;2023-05-07T06:53:36;6.50;;;4.95;;
14342;SDS011;7255;53.596;9.960;2023-05-07T06:56:02;5.90;;;4.75;;
14342;SDS011;7255;53.596;9.960;2023-05-07T06:58:28;5.80;;;5.00;;
14342;SDS011;7255;53.596;9.960;2023-05-07T07:00:55;6.90;;;5.37;;
14342;SDS011;7255;53.596;9.960;2023-05-07T07:03:21;5.60;;;4.70;;
14342;SDS011;7255;53.596;9.960;2023-05-07T07:05:48;6.18;;;5.45;;
14342;SDS011;7255;53.596;9.960;2023-05-07T07:08:17;6.00;;;5.30;;
14342;SDS011;7255;53.596;9.960;2023-05-07T07:10:46;6.97;;;5.10;;
14342;SDS011;7255;53.596;9.960;2023-05-07T07:13:12;6.12;;;4.93;;
14342;SDS011;7255;53.596;9.960;2023-05-07T07:15:38;5.75;;;4.78;;
14342;SDS011;7255;53.596;9.960;2023-05-07T07:18:05;5.28;;;4.78;;
14342;SDS011;7255;53.596;9.960;2023-05-07T07:20:32;6.80;;;4.80;;
14342;SDS011;7255;53.596;9.960;2023-05-07T07:22:59;6.40;;;4.75;;
14342;SDS011;7255;53.596;9.960;2023-05-07T07:25:25;5.53;;;4.93;;
14342;SDS011;7255;53.596;9.960;2023-05-07T07:27:52;5.82;;;4.57;;
14342;SDS011;7255;53.596;9.960;2023-05-07T07:30:18;5.95;;;4.65;;
14342;SDS011;7255;53.596;9.960;2023-05-07T07:32:44;5.25;;;4.62;;
14342;SDS011;7255;53.596;9.960;2023-05-07T07:35:11;6.40;;;4.80;;
14342;SDS011;7255;53.596;9.960;2023-05-07T07:37:37;5.35;;;4.53;;
14342;SDS011;7255;53.596;9.960;2023-05-07T07:40:05;4.97;;;4.10;;
14342;SDS011;7255;53.596;9.960;2023-05-07T07:42:32;4.80;;;4.18;;
14342;SDS011;7255;53.596;9.960;2023-05-07T07:44:58;5.00;;;4.23;;
14342;SDS011;7255;53.596;9.960;2023-05-07T07:47:25;5.03;;;4.27;;
14342;SDS011;7255;53.596;9.960;2023-05-07T07:49:51;4.95;;;4.05;;
14342;SDS011;7255;53.596;9.960;2023-05-07T07:52:17;5.05;;;4.18;;
14342;SDS011;7255;53.596;9.960;2023-05-07T07:54:44;4.75;;;4.32;;
14342;SDS011;7255;53.596;9.960;2023-05-07T07:57:12;5.00;;;4.50;;
14342;SDS011;7255;53.596;9.960;2023-05-07T07:59:38;5.07;;;4.20;;
14342;SDS011;7255;53.596;9.960;2023-05-07T08:02:05;4.30;;;3.90;;
14342;SDS011;7255;53.596;9.960;2023-05-07T08:04:31;4.95;;;4.45;;
14342;SDS011;7255;53.596;9.960;2023-05-07T08:06:58;5.15;;;4.00;;
14342;SDS011;7255;53.596;9.960;2023-05-07T08:09:24;5.18;;;4.37;;
14342;SDS011;7255;53.596;9.960;2023-05-07T08:11:50;4.47;;;4.07;;
14342;SDS011;7255;53.596;9.960;2023-05-07T08:14:18;5.03;;;3.80;;
14342;SDS011;7255;53.596;9.960;2023-05-07T08:16:45;4.37;;;3.83;;
14342;SDS011;7255;53.596;9.960;2023-05-07T08:19:11;4.80;;;3.97;;
14342;SDS011;7255;53.596;9.960;2023-05-07T08:21:38;4.28;;;3.87;;
14342;SDS011;7255;53.596;9.960;2023-05-07T08:24:05;4.00;;;3.70;;
14342;SDS011;7255;53.596;9.960;2023-05-07T08:26:32;3.87;;;3.58;;
14342;SDS011;7255;53.596;9.960;2023-05-07T08:28:58;4.20;;;3.80;;
14342;SDS011;7255;53.596;9.960;2023-05-07T08:31:26;4.53;;;4.07;;
14342;SDS011;7255;53.596;9.960;2023-05-07T08:33:52;4.57;;;4.00;;
14342;SDS011;7255;53.596;9.960;2023-05-07T08:36:18;4.12;;;3.72;;
14342;SDS011;7255;53.596;9.960;2023-05-07T08:38:45;4.40;;;3.80;;
14342;SDS011;7255;53.596;9.960;2023-05-07T08:41:11;4.65;;;3.75;;
14342;SDS011;7255;53.596;9.960;2023-05-07T08:43:38;6.30;;;4.47;;
14342;SDS011;7255;53.596;9.960;2023-05-07T08:46:07;4.45;;;4.05;;
14342;SDS011;7255;53.596;9.960;2023-05-07T08:48:36;4.62;;;4.03;;
14342;SDS011;7255;53.596;9.960;2023-05-07T08:51:03;4.87;;;4.37;;
14342;SDS011;7255;53.596;9.960;2023-05-07T08:53:29;4.73;;;4.23;;
14342;SDS011;7255;53.596;9.960;2023-05-07T08:55:56;5.00;;;4.37;;
14342;SDS011;7255;53.596;9.960;2023-05-07T08:58:22;5.72;;;4.32;;
14342;SDS011;7255;53.596;9.960;2023-05-07T09:00:49;4.60;;;3.97;;
14342;SDS011;7255;53.596;9.960;2023-05-07T09:03:17;5.10;;;4.28;;
14342;SDS011;7255;53.596;9.960;2023-05-07T09:05:45;4.43;;;4.03;;
14342;SDS011;7255;53.596;9.960;2023-05-07T09:08:13;4.80;;;4.30;;
14342;SDS011;7255;53.596;9.960;2023-05-07T09:10:40;4.55;;;4.15;;
14342;SDS011;7255;53.596;9.960;2023-05-07T09:13:07;5.47;;;4.57;;
14342;SDS011;7255;53.596;9.960;2023-05-07T09:15:34;4.85;;;4.03;;
14342;SDS011;7255;53.596;9.960;2023-05-07T09:18:00;4.60;;;4.10;;
14342;SDS011;7255;53.596;9.960;2023-05-07T09:20:27;4.30;;;3.90;;
14342;SDS011;7255;53.596;9.960;2023-05-07T09:22:57;4.78;;;4.05;;
14342;SDS011;7255;53.596;9.960;2023-05-07T09:25:27;4.43;;;4.00;;
14342;SDS011;7255;53.596;9.960;2023-05-07T09:27:54;4.10;;;3.70;;
14342;SDS011;7255;53.596;9.960;2023-05-07T09:30:20;4.32;;;3.92;;
14342;SDS011;7255;53.596;9.960;2023-05-07T09:32:47;4.70;;;3.83;;
14342;SDS011;7255;53.596;9.960;2023-05-07T09:35:16;4.20;;;3.80;;
14342;SDS011;7255;53.596;9.960;2023-05-07T09:37:46;4.53;;;3.70;;
14342;SDS011;7255;53.596;9.960;2023-05-07T09:40:21;4.22;;;3.72;;
14342;SDS011;7255;53.596;9.960;2023-05-07T09:42:48;4.57;;;3.97;;
14342;SDS011;7255;53.596;9.960;2023-05-07T09:45:15;4.72;;;3.72;;
14342;SDS011;7255;53.596;9.960;2023-05-07T09:47:42;3.47;;;3.17;;
14342;SDS011;7255;53.596;9.960;2023-05-07T09:50:10;4.07;;;3.42;;
14342;SDS011;7255;53.596;9.960;2023-05-07T09:52:39;4.18;;;3.47;;
14342;SDS011;7255;53.596;9.960;2023-05-07T09:55:07;4.00;;;3.60;;
14342;SDS011;7255;53.596;9.960;2023-05-07T09:57:34;4.73;;;3.60;;
14342;SDS011;7255;53.596;9.960;2023-05-07T10:00:02;4.40;;;3.50;;
14342;SDS011;7255;53.596;9.960;2023-05-07T10:02:30;3.75;;;3.45;;
14342;SDS011;7255;53.596;9.960;2023-05-07T10:04:59;3.85;;;3.40;;
14342;SDS011;7255;53.596;9.960;2023-05-07T10:07:26;4.28;;;3.37;;
14342;SDS011;7255;53.596;9.960;2023-05-07T10:09:53;4.03;;;3.30;;
14342;SDS011;7255;53.596;9.960;2023-05-07T10:12:20;3.62;;;3.17;;
14342;SDS011;7255;53.596;9.960;2023-05-07T10:14:48;3.97;;;3.55;;
14342;SDS011;7255;53.596;9.960;2023-05-07T10:17:17;4.20;;;3.80;;
14342;SDS011;7255;53.596;9.960;2023-05-07T10:19:44;4.62;;;3.80;;
14342;SDS011;7255;53.596;9.960;2023-05-07T10:22:10;4.15;;;3.75;;
14342;SDS011;7255;53.596;9.960;2023-05-07T10:24:39;4.85;;;3.90;;
14342;SDS011;7255;53.596;9.960;2023-05-07T10:27:11;4.40;;;3.83;;
14342;SDS011;7255;53.596;9.960;2023-05-07T10:29:43;4.95;;;3.95;;
14342;SDS011;7255;53.596;9.960;2023-05-07T10:32:24;4.00;;;3.60;;
14342;SDS011;7255;53.596;9.960;2023-05-07T10:35:00;4.65;;;3.70;;
14342;SDS011;7255;53.596;9.960;2023-05-07T10:37:28;4.07;;;3.67;;
14342;SDS011;7255;53.596;9.960;2023-05-07T10:39:55;4.25;;;3.85;;
14342;SDS011;7255;53.596;9.960;2023-05-07T10:42:22;4.45;;;3.60;;
14342;SDS011;7255;53.596;9.960;2023-05-07T10:44:49;4.03;;;3.53;;
14342;SDS011;7255;53.596;9.960;2023-05-07T10:47:16;4.75;;;3.12;;
14342;SDS011;7255;53.596;9.960;2023-05-07T10:55:51;3.65;;;3.22;;
14342;SDS011;7255;53.596;9.960;2023-05-07T10:58:39;3.90;;;3.50;;
14342;SDS011;7255;53.596;9.960;2023-05-07T11:01:05;3.50;;;3.20;;
14342;SDS011;7255;53.596;9.960;2023-05-07T11:03:31;3.30;;;2.97;;
14342;SDS011;7255;53.596;9.960;2023-05-07T11:06:10;4.32;;;3.28;;
14342;SDS011;7255;53.596;9.960;2023-05-07T11:08:52;4.78;;;3.30;;
14342;SDS011;7255;53.596;9.960;2023-05-07T11:11:19;3.35;;;3.05;;
14342;SDS011;7255;53.596;9.960;2023-05-07T11:13:47;3.50;;;3.00;;
14342;SDS011;7255;53.596;9.960;2023-05-07T11:16:16;3.70;;;3.10;;
14342;SDS011;7255;53.596;9.960;2023-05-07T11:18:46;3.92;;;3.25;;
14342;SDS011;7255;53.596;9.960;2023-05-07T11:21:24;3.62;;;3.10;;
14342;SDS011;7255;53.596;9.960;2023-05-07T11:23:58;3.20;;;2.90;;
14342;SDS011;7255;53.596;9.960;2023-05-07T11:26:26;4.20;;;2.90;;
14342;SDS011;7255;53.596;9.960;2023-05-07T11:28:55;3.70;;;2.97;;
14342;SDS011;7255;53.596;9.960;2023-05-07T11:31:22;3.20;;;2.90;;
14342;SDS011;7255;53.596;9.960;2023-05-07T11:33:51;3.03;;;2.72;;
14342;SDS011;7255;53.596;9.960;2023-05-07T11:36:18;3.57;;;2.93;;
14342;SDS011;7255;53.596;9.960;2023-05-07T11:38:46;3.15;;;2.85;;
14342;SDS011;7255;53.596;9.960;2023-05-07T11:41:12;3.33;;;2.92;;
14342;SDS011;7255;53.596;9.960;2023-05-07T11:43:41;3.70;;;3.22;;
14342;SDS011;7255;53.596;9.960;2023-05-07T11:46:21;3.33;;;3.00;;
14342;SDS011;7255;53.596;9.960;2023-05-07T11:48:48;3.30;;;3.00;;
14342;SDS011;7255;53.596;9.960;2023-05-07T11:51:18;3.33;;;2.75;;
14342;SDS011;7255;53.596;9.960;2023-05-07T11:53:44;3.20;;;2.90;;
14342;SDS011;7255;53.596;9.960;2023-05-07T11:56:11;3.25;;;2.95;;
14342;SDS011;7255;53.596;9.960;2023-05-07T11:58:39;3.50;;;3.03;;
14342;SDS011;7255;53.596;9.960;2023-05-07T12:01:08;3.10;;;2.62;;
14342;SDS011;7255;53.596;9.960;2023-05-07T12:03:35;2.78;;;2.58;;
14342;SDS011;7255;53.596;9.960;2023-05-07T12:06:02;3.00;;;2.50;;
14342;SDS011;7255;53.596;9.960;2023-05-07T12:08:31;2.90;;;2.62;;
14342;SDS011;7255;53.596;9.960;2023-05-07T12:10:57;3.08;;;2.78;;
14342;SDS011;7255;53.596;9.960;2023-05-07T12:13:24;3.05;;;2.75;;
14342;SDS011;7255;53.596;9.960;2023-05-07T12:15:51;2.53;;;2.33;;
14342;SDS011;7255;53.596;9.960;2023-05-07T12:18:19;2.78;;;2.47;;
14342;SDS011;7255;53.596;9.960;2023-05-07T12:20:47;3.13;;;2.60;;
14342;SDS011;7255;53.596;9.960;2023-05-07T12:23:14;2.67;;;2.47;;
14342;SDS011;7255;53.596;9.960;2023-05-07T12:25:42;2.72;;;2.50;;
14342;SDS011;7255;53.596;9.960;2023-05-07T12:28:12;2.70;;;2.50;;
14342;SDS011;7255;53.596;9.960;2023-05-07T12:30:39;2.30;;;2.10;;
14342;SDS011;7255;53.596;9.960;2023-05-07T12:33:06;2.55;;;2.33;;
14342;SDS011;7255;53.596;9.960;2023-05-07T12:35:36;2.20;;;2.00;;
14342;SDS011;7255;53.596;9.960;2023-05-07T12:38:06;2.30;;;2.10;;
14342;SDS011;7255;53.596;9.960;2023-05-07T12:40:37;2.95;;;2.35;;
14342;SDS011;7255;53.596;9.960;2023-05-07T12:43:04;2.40;;;2.20;;
14342;SDS011;7255;53.596;9.960;2023-05-07T12:45:30;2.50;;;2.15;;
14342;SDS011;7255;53.596;9.960;2023-05-07T12:47:57;2.40;;;2.20;;
14342;SDS011;7255;53.596;9.960;2023-05-07T12:50:30;2.30;;;2.10;;
14342;SDS011;7255;53.596;9.960;2023-05-07T12:52:59;2.50;;;2.30;;
14342;SDS011;7255;53.596;9.960;2023-05-07T12:55:25;2.33;;;2.12;;
14342;SDS011;7255;53.596;9.960;2023-05-07T12:57:52;1.90;;;1.80;;
14342;SDS011;7255;53.596;9.960;2023-05-07T13:00:31;2.33;;;2.10;;
14342;SDS011;7255;53.596;9.960;2023-05-07T13:02:58;2.40;;;2.20;;
14342;SDS011;7255;53.596;9.960;2023-05-07T13:05:24;3.47;;;2.47;;
14342;SDS011;7255;53.596;9.960;2023-05-07T13:07:53;2.30;;;2.10;;
14342;SDS011;7255;53.596;9.960;2023-05-07T13:10:22;2.35;;;2.15;;
14342;SDS011;7255;53.596;9.960;2023-05-07T13:12:49;2.20;;;2.00;;
14342;SDS011;7255;53.596;9.960;2023-05-07T13:15:15;2.30;;;2.10;;
14342;SDS011;7255;53.596;9.960;2023-05-07T13:17:42;2.30;;;2.10;;
14342;SDS011;7255;53.596;9.960;2023-05-07T13:20:09;4.93;;;2.50;;
14342;SDS011;7255;53.596;9.960;2023-05-07T13:22:37;2.50;;;2.10;;
14342;SDS011;7255;53.596;9.960;2023-05-07T13:25:04;2.08;;;1.90;;
14342;SDS011;7255;53.596;9.960;2023-05-07T13:27:32;1.98;;;1.83;;
14342;SDS011;7255;53.596;9.960;2023-05-07T13:30:01;2.22;;;2.03;;
14342;SDS011;7255;53.596;9.960;2023-05-07T13:32:27;1.95;;;1.85;;
14342;SDS011;7255;53.596;9.960;2023-05-07T13:34:54;2.15;;;1.95;;
14342;SDS011;7255;53.596;9.960;2023-05-07T13:37:20;1.70;;;1.60;;
14342;SDS011;7255;53.596;9.960;2023-05-07T13:39:46;1.75;;;1.65;;
14342;SDS011;7255;53.596;9.960;2023-05-07T13:42:13;2.20;;;2.00;;
14342;SDS011;7255;53.596;9.960;2023-05-07T13:44:41;2.30;;;2.00;;
14342;SDS011;7255;53.596;9.960;2023-05-07T13:47:08;2.03;;;1.83;;
14342;SDS011;7255;53.596;9.960;2023-05-07T13:49:35;1.70;;;1.60;;
14342;SDS011;7255;53.596;9.960;2023-05-07T13:52:01;1.60;;;1.50;;
14342;SDS011;7255;53.596;9.960;2023-05-07T13:54:27;1.73;;;1.50;;
14342;SDS011;7255;53.596;9.960;2023-05-07T13:56:53;1.83;;;1.73;;
14342;SDS011;7255;53.596;9.960;2023-05-07T13:59:20;1.70;;;1.60;;
14342;SDS011;7255;53.596;9.960;2023-05-07T14:01:48;1.90;;;1.67;;
14342;SDS011;7255;53.596;9.960;2023-05-07T14:04:14;1.73;;;1.62;;
14342;SDS011;7255;53.596;9.960;2023-05-07T14:06:41;1.80;;;1.60;;
14342;SDS011;7255;53.596;9.960;2023-05-07T14:09:07;2.80;;;1.80;;
14342;SDS011;7255;53.596;9.960;2023-05-07T14:11:33;1.87;;;1.67;;
14342;SDS011;7255;53.596;9.960;2023-05-07T14:14:00;1.65;;;1.55;;
14342;SDS011;7255;53.596;9.960;2023-05-07T14:16:26;1.77;;;1.58;;
14342;SDS011;7255;53.596;9.960;2023-05-07T14:18:54;2.00;;;1.50;;
14342;SDS011;7255;53.596;9.960;2023-05-07T14:21:20;1.60;;;1.45;;
14342;SDS011;7255;53.596;9.960;2023-05-07T14:23:46;1.77;;;1.50;;
14342;SDS011;7255;53.596;9.960;2023-05-07T14:26:13;1.50;;;1.40;;
14342;SDS011;7255;53.596;9.960;2023-05-07T14:28:39;1.60;;;1.50;;
14342;SDS011;7255;53.596;9.960;2023-05-07T14:31:11;1.62;;;1.50;;
14342;SDS011;7255;53.596;9.960;2023-05-07T14:33:37;1.48;;;1.37;;
14342;SDS011;7255;53.596;9.960;2023-05-07T14:36:05;2.43;;;1.37;;
14342;SDS011;7255;53.596;9.960;2023-05-07T14:38:31;1.83;;;1.30;;
14342;SDS011;7255;53.596;9.960;2023-05-07T14:40:58;1.52;;;1.40;;
14342;SDS011;7255;53.596;9.960;2023-05-07T14:43:25;2.28;;;1.52;;
14342;SDS011;7255;53.596;9.960;2023-05-07T14:45:51;1.40;;;1.30;;
14342;SDS011;7255;53.596;9.960;2023-05-07T14:48:18;1.60;;;1.50;;
14342;SDS011;7255;53.596;9.960;2023-05-07T14:50:46;1.58;;;1.48;;
14342;SDS011;7255;53.596;9.960;2023-05-07T14:53:13;1.50;;;1.40;;
14342;SDS011;7255;53.596;9.960;2023-05-07T14:55:41;1.58;;;1.33;;
14342;SDS011;7255;53.596;9.960;2023-05-07T14:58:07;1.55;;;1.45;;
14342;SDS011;7255;53.596;9.960;2023-05-07T15:00:34;1.50;;;1.40;;
14342;SDS011;7255;53.596;9.960;2023-05-07T15:03:03;1.70;;;1.60;;
14342;SDS011;7255;53.596;9.960;2023-05-07T15:05:31;1.60;;;1.50;;
14342;SDS011;7255;53.596;9.960;2023-05-07T15:07:58;1.55;;;1.45;;